sensor_id;sensor_type;location;lat;lon;timestamp;P1;durP1;ratioP1;P2;durP2;ratioP2
62679;SDS011;68213;40.528;44.712;2023-04-06T00:00:23;20.05;;;7.70;;
62679;SDS011;68213;40.528;44.712;2023-04-06T00:01:24;19.65;;;6.55;;
62679;SDS011;68213;40.528;44.712;2023-04-06T00:02:25;9.35;;;5.75;;
62679;SDS011;68213;40.528;44.712;2023-04-06T00:03:25;18.02;;;7.05;;
62679;SDS011;68213;40.528;44.712;2023-04-06T00:04:26;14.48;;;6.93;;
62679;SDS011;68213;40.528;44.712;2023-04-06T00:05:27;17.33;;;6.97;;
62679;SDS011;68213;40.528;44.712;2023-04-06T00:06:30;10.10;;;6.88;;
62679;SDS011;68213;40.528;44.712;2023-04-06T00:07:32;17.38;;;7.00;;
62679;SDS011;68213;40.528;44.712;2023-04-06T00:08:33;12.88;;;7.13;;
62679;SDS011;68213;40.528;44.712;2023-04-06T00:09:34;12.13;;;6.82;;
62679;SDS011;68213;40.528;44.712;2023-04-06T00:10:35;19.65;;;7.25;;
62679;SDS011;68213;40.528;44.712;2023-04-06T00:11:35;16.92;;;7.05;;
62679;SDS011;68213;40.528;44.712;2023-04-06T00:12:36;16.92;;;7.38;;
62679;SDS011;68213;40.528;44.712;2023-04-06T00:13:37;16.98;;;7.13;;
62679;SDS011;68213;40.528;44.712;2023-04-06T00:14:37;22.38;;;7.47;;
62679;SDS011;68213;40.528;44.712;2023-04-06T00:15:38;16.85;;;7.40;;
62679;SDS011;68213;40.528;44.712;2023-04-06T00:16:39;16.20;;;7.65;;
62679;SDS011;68213;40.528;44.712;2023-04-06T00:17:39;16.02;;;7.68;;
62679;SDS011;68213;40.528;44.712;2023-04-06T00:18:40;17.42;;;8.45;;
62679;SDS011;68213;40.528;44.712;2023-04-06T00:19:41;19.83;;;8.50;;
62679;SDS011;68213;40.528;44.712;2023-04-06T00:20:42;17.90;;;8.20;;
62679;SDS011;68213;40.528;44.712;2023-04-06T00:21:42;19.00;;;9.25;;
62679;SDS011;68213;40.528;44.712;2023-04-06T00:22:43;16.30;;;8.68;;
62679;SDS011;68213;40.528;44.712;2023-04-06T00:23:44;16.70;;;8.68;;
62679;SDS011;68213;40.528;44.712;2023-04-06T00:24:45;18.27;;;8.98;;
62679;SDS011;68213;40.528;44.712;2023-04-06T00:25:46;19.02;;;8.57;;
62679;SDS011;68213;40.528;44.712;2023-04-06T00:26:46;18.80;;;8.48;;
62679;SDS011;68213;40.528;44.712;2023-04-06T00:27:47;18.10;;;9.13;;
62679;SDS011;68213;40.528;44.712;2023-04-06T00:28:48;17.02;;;9.15;;
62679;SDS011;68213;40.528;44.712;2023-04-06T00:29:50;23.73;;;9.40;;
62679;SDS011;68213;40.528;44.712;2023-04-06T00:30:51;21.65;;;9.10;;
62679;SDS011;68213;40.528;44.712;2023-04-06T00:31:53;19.52;;;9.20;;
62679;SDS011;68213;40.528;44.712;2023-04-06T00:32:53;20.75;;;8.50;;
62679;SDS011;68213;40.528;44.712;2023-04-06T00:33:54;14.70;;;8.40;;
62679;SDS011;68213;40.528;44.712;2023-04-06T00:34:55;21.60;;;9.40;;
62679;SDS011;68213;40.528;44.712;2023-04-06T00:35:55;18.88;;;9.90;;
62679;SDS011;68213;40.528;44.712;2023-04-06T00:36:56;20.17;;;9.73;;
62679;SDS011;68213;40.528;44.712;2023-04-06T00:37:57;19.65;;;10.07;;
62679;SDS011;68213;40.528;44.712;2023-04-06T00:38:58;20.92;;;10.43;;
62679;SDS011;68213;40.528;44.712;2023-04-06T00:39:58;21.30;;;10.15;;
62679;SDS011;68213;40.528;44.712;2023-04-06T00:40:59;22.17;;;10.50;;
62679;SDS011;68213;40.528;44.712;2023-04-06T00:42:01;21.95;;;10.18;;
62679;SDS011;68213;40.528;44.712;2023-04-06T00:43:13;19.30;;;9.48;;
62679;SDS011;68213;40.528;44.712;2023-04-06T00:44:14;22.00;;;10.38;;
62679;SDS011;68213;40.528;44.712;2023-04-06T00:45:15;20.10;;;9.95;;
62679;SDS011;68213;40.528;44.712;2023-04-06T00:46:17;22.77;;;9.82;;
62679;SDS011;68213;40.528;44.712;2023-04-06T00:47:17;22.65;;;9.48;;
62679;SDS011;68213;40.528;44.712;2023-04-06T00:48:20;20.48;;;9.30;;
62679;SDS011;68213;40.528;44.712;2023-04-06T00:49:21;22.15;;;9.98;;
62679;SDS011;68213;40.528;44.712;2023-04-06T00:50:22;16.27;;;9.80;;
62679;SDS011;68213;40.528;44.712;2023-04-06T00:51:23;16.40;;;8.80;;
62679;SDS011;68213;40.528;44.712;2023-04-06T00:52:26;19.15;;;9.45;;
62679;SDS011;68213;40.528;44.712;2023-04-06T00:53:26;20.73;;;9.30;;
62679;SDS011;68213;40.528;44.712;2023-04-06T00:54:28;15.23;;;9.88;;
62679;SDS011;68213;40.528;44.712;2023-04-06T00:55:32;18.52;;;9.93;;
62679;SDS011;68213;40.528;44.712;2023-04-06T00:56:33;14.93;;;9.18;;
62679;SDS011;68213;40.528;44.712;2023-04-06T00:57:34;16.77;;;9.48;;
62679;SDS011;68213;40.528;44.712;2023-04-06T00:58:35;18.75;;;9.13;;
62679;SDS011;68213;40.528;44.712;2023-04-06T00:59:39;17.35;;;8.65;;
62679;SDS011;68213;40.528;44.712;2023-04-06T01:00:40;16.10;;;8.73;;
62679;SDS011;68213;40.528;44.712;2023-04-06T01:01:41;16.45;;;9.10;;
62679;SDS011;68213;40.528;44.712;2023-04-06T01:02:42;19.02;;;9.40;;
62679;SDS011;68213;40.528;44.712;2023-04-06T01:03:45;17.83;;;9.10;;
62679;SDS011;68213;40.528;44.712;2023-04-06T01:05:53;23.58;;;9.93;;
62679;SDS011;68213;40.528;44.712;2023-04-06T01:06:58;20.27;;;9.25;;
62679;SDS011;68213;40.528;44.712;2023-04-06T01:07:58;23.35;;;10.23;;
62679;SDS011;68213;40.528;44.712;2023-04-06T01:08:59;25.48;;;9.90;;
62679;SDS011;68213;40.528;44.712;2023-04-06T01:10:02;21.85;;;9.90;;
62679;SDS011;68213;40.528;44.712;2023-04-06T01:11:05;20.40;;;9.48;;
62679;SDS011;68213;40.528;44.712;2023-04-06T01:12:05;14.45;;;7.88;;
62679;SDS011;68213;40.528;44.712;2023-04-06T01:13:06;14.35;;;8.63;;
62679;SDS011;68213;40.528;44.712;2023-04-06T01:14:08;15.50;;;7.85;;
62679;SDS011;68213;40.528;44.712;2023-04-06T01:15:09;17.02;;;7.97;;
62679;SDS011;68213;40.528;44.712;2023-04-06T01:16:11;13.13;;;7.35;;
62679;SDS011;68213;40.528;44.712;2023-04-06T01:17:12;16.17;;;8.48;;
62679;SDS011;68213;40.528;44.712;2023-04-06T01:18:12;21.15;;;8.50;;
62679;SDS011;68213;40.528;44.712;2023-04-06T01:19:13;12.27;;;7.80;;
62679;SDS011;68213;40.528;44.712;2023-04-06T01:20:14;17.73;;;7.82;;
62679;SDS011;68213;40.528;44.712;2023-04-06T01:21:15;12.52;;;7.15;;
62679;SDS011;68213;40.528;44.712;2023-04-06T01:22:17;15.52;;;7.05;;
62679;SDS011;68213;40.528;44.712;2023-04-06T01:23:19;14.77;;;7.25;;
62679;SDS011;68213;40.528;44.712;2023-04-06T01:24:20;19.52;;;7.75;;
62679;SDS011;68213;40.528;44.712;2023-04-06T01:25:20;18.27;;;7.63;;
62679;SDS011;68213;40.528;44.712;2023-04-06T01:26:26;17.15;;;7.88;;
62679;SDS011;68213;40.528;44.712;2023-04-06T01:27:27;22.02;;;8.88;;
62679;SDS011;68213;40.528;44.712;2023-04-06T01:28:29;17.35;;;8.10;;
62679;SDS011;68213;40.528;44.712;2023-04-06T01:29:30;16.48;;;7.15;;
62679;SDS011;68213;40.528;44.712;2023-04-06T01:30:31;14.68;;;7.32;;
62679;SDS011;68213;40.528;44.712;2023-04-06T01:31:32;20.33;;;7.60;;
62679;SDS011;68213;40.528;44.712;2023-04-06T01:32:33;17.33;;;8.23;;
62679;SDS011;68213;40.528;44.712;2023-04-06T01:33:33;13.25;;;7.43;;
62679;SDS011;68213;40.528;44.712;2023-04-06T01:34:34;14.77;;;8.18;;
62679;SDS011;68213;40.528;44.712;2023-04-06T01:35:35;19.65;;;8.30;;
62679;SDS011;68213;40.528;44.712;2023-04-06T01:36:36;17.02;;;8.77;;
62679;SDS011;68213;40.528;44.712;2023-04-06T01:37:37;14.93;;;7.95;;
62679;SDS011;68213;40.528;44.712;2023-04-06T01:38:42;17.70;;;8.20;;
62679;SDS011;68213;40.528;44.712;2023-04-06T01:39:45;13.20;;;7.75;;
62679;SDS011;68213;40.528;44.712;2023-04-06T01:40:46;16.90;;;7.40;;
62679;SDS011;68213;40.528;44.712;2023-04-06T01:41:47;16.35;;;7.70;;
62679;SDS011;68213;40.528;44.712;2023-04-06T01:42:47;16.38;;;8.20;;
62679;SDS011;68213;40.528;44.712;2023-04-06T01:43:48;18.58;;;8.27;;
62679;SDS011;68213;40.528;44.712;2023-04-06T01:44:49;16.40;;;8.25;;
62679;SDS011;68213;40.528;44.712;2023-04-06T01:45:51;15.02;;;8.38;;
62679;SDS011;68213;40.528;44.712;2023-04-06T01:46:54;17.67;;;9.13;;
62679;SDS011;68213;40.528;44.712;2023-04-06T01:47:55;15.80;;;8.75;;
62679;SDS011;68213;40.528;44.712;2023-04-06T01:48:56;19.67;;;8.45;;
62679;SDS011;68213;40.528;44.712;2023-04-06T01:49:56;18.05;;;8.48;;
62679;SDS011;68213;40.528;44.712;2023-04-06T01:50:57;17.00;;;8.30;;
62679;SDS011;68213;40.528;44.712;2023-04-06T01:51:58;18.65;;;8.95;;
62679;SDS011;68213;40.528;44.712;2023-04-06T01:52:58;17.23;;;8.05;;
62679;SDS011;68213;40.528;44.712;2023-04-06T01:53:59;14.30;;;8.23;;
62679;SDS011;68213;40.528;44.712;2023-04-06T01:55:00;15.98;;;6.75;;
62679;SDS011;68213;40.528;44.712;2023-04-06T01:56:00;16.23;;;7.63;;
62679;SDS011;68213;40.528;44.712;2023-04-06T01:57:01;12.90;;;7.07;;
62679;SDS011;68213;40.528;44.712;2023-04-06T01:58:02;17.23;;;7.13;;
62679;SDS011;68213;40.528;44.712;2023-04-06T01:59:03;17.63;;;6.72;;
62679;SDS011;68213;40.528;44.712;2023-04-06T02:00:04;12.82;;;6.68;;
62679;SDS011;68213;40.528;44.712;2023-04-06T02:01:05;17.50;;;7.35;;
62679;SDS011;68213;40.528;44.712;2023-04-06T02:02:06;13.73;;;6.55;;
62679;SDS011;68213;40.528;44.712;2023-04-06T02:03:06;14.82;;;6.93;;
62679;SDS011;68213;40.528;44.712;2023-04-06T02:04:07;14.77;;;6.82;;
62679;SDS011;68213;40.528;44.712;2023-04-06T02:05:08;13.40;;;6.50;;
62679;SDS011;68213;40.528;44.712;2023-04-06T02:06:09;12.90;;;6.60;;
62679;SDS011;68213;40.528;44.712;2023-04-06T02:07:09;12.82;;;6.65;;
62679;SDS011;68213;40.528;44.712;2023-04-06T02:08:13;13.60;;;6.88;;
62679;SDS011;68213;40.528;44.712;2023-04-06T02:09:14;15.48;;;6.65;;
62679;SDS011;68213;40.528;44.712;2023-04-06T02:10:15;23.70;;;6.93;;
62679;SDS011;68213;40.528;44.712;2023-04-06T02:11:16;15.40;;;6.88;;
62679;SDS011;68213;40.528;44.712;2023-04-06T02:12:17;18.98;;;7.18;;
62679;SDS011;68213;40.528;44.712;2023-04-06T02:13:18;17.75;;;6.90;;
62679;SDS011;68213;40.528;44.712;2023-04-06T02:14:18;16.80;;;6.35;;
62679;SDS011;68213;40.528;44.712;2023-04-06T02:15:19;22.45;;;6.53;;
62679;SDS011;68213;40.528;44.712;2023-04-06T02:16:20;14.90;;;5.90;;
62679;SDS011;68213;40.528;44.712;2023-04-06T02:17:21;14.70;;;6.97;;
62679;SDS011;68213;40.528;44.712;2023-04-06T02:18:21;12.95;;;7.05;;
62679;SDS011;68213;40.528;44.712;2023-04-06T02:19:22;14.07;;;6.28;;
62679;SDS011;68213;40.528;44.712;2023-04-06T02:20:23;17.65;;;7.22;;
62679;SDS011;68213;40.528;44.712;2023-04-06T02:21:24;13.07;;;6.88;;
62679;SDS011;68213;40.528;44.712;2023-04-06T02:22:24;16.80;;;6.53;;
62679;SDS011;68213;40.528;44.712;2023-04-06T02:23:25;16.13;;;6.38;;
62679;SDS011;68213;40.528;44.712;2023-04-06T02:24:26;16.65;;;6.72;;
62679;SDS011;68213;40.528;44.712;2023-04-06T02:25:28;13.60;;;7.10;;
62679;SDS011;68213;40.528;44.712;2023-04-06T02:26:29;18.80;;;6.60;;
62679;SDS011;68213;40.528;44.712;2023-04-06T02:27:30;15.02;;;6.60;;
62679;SDS011;68213;40.528;44.712;2023-04-06T02:28:30;15.07;;;6.35;;
62679;SDS011;68213;40.528;44.712;2023-04-06T02:29:31;16.15;;;6.00;;
62679;SDS011;68213;40.528;44.712;2023-04-06T02:30:32;16.33;;;6.47;;
62679;SDS011;68213;40.528;44.712;2023-04-06T02:31:32;16.83;;;6.93;;
62679;SDS011;68213;40.528;44.712;2023-04-06T02:32:33;13.15;;;6.05;;
62679;SDS011;68213;40.528;44.712;2023-04-06T02:33:34;11.38;;;6.07;;
62679;SDS011;68213;40.528;44.712;2023-04-06T02:34:35;11.32;;;6.78;;
62679;SDS011;68213;40.528;44.712;2023-04-06T02:35:35;15.20;;;6.32;;
62679;SDS011;68213;40.528;44.712;2023-04-06T02:36:36;14.13;;;6.50;;
62679;SDS011;68213;40.528;44.712;2023-04-06T02:37:37;12.68;;;6.03;;
62679;SDS011;68213;40.528;44.712;2023-04-06T02:38:38;16.00;;;6.55;;
62679;SDS011;68213;40.528;44.712;2023-04-06T02:39:39;16.63;;;6.53;;
62679;SDS011;68213;40.528;44.712;2023-04-06T02:40:40;12.18;;;6.22;;
62679;SDS011;68213;40.528;44.712;2023-04-06T02:41:40;12.38;;;6.00;;
62679;SDS011;68213;40.528;44.712;2023-04-06T02:42:41;11.13;;;6.38;;
62679;SDS011;68213;40.528;44.712;2023-04-06T02:43:42;13.85;;;6.43;;
62679;SDS011;68213;40.528;44.712;2023-04-06T02:44:42;16.85;;;6.60;;
62679;SDS011;68213;40.528;44.712;2023-04-06T02:45:43;15.48;;;6.75;;
62679;SDS011;68213;40.528;44.712;2023-04-06T02:46:44;16.73;;;7.00;;
62679;SDS011;68213;40.528;44.712;2023-04-06T02:47:45;13.77;;;6.97;;
62679;SDS011;68213;40.528;44.712;2023-04-06T02:48:45;15.18;;;6.43;;
62679;SDS011;68213;40.528;44.712;2023-04-06T02:49:46;16.98;;;6.95;;
62679;SDS011;68213;40.528;44.712;2023-04-06T02:50:47;13.63;;;7.07;;
62679;SDS011;68213;40.528;44.712;2023-04-06T02:51:47;15.77;;;6.78;;
62679;SDS011;68213;40.528;44.712;2023-04-06T02:52:48;12.68;;;6.70;;
62679;SDS011;68213;40.528;44.712;2023-04-06T02:53:49;15.68;;;6.65;;
62679;SDS011;68213;40.528;44.712;2023-04-06T02:54:49;13.45;;;6.28;;
62679;SDS011;68213;40.528;44.712;2023-04-06T02:55:51;11.68;;;6.72;;
62679;SDS011;68213;40.528;44.712;2023-04-06T02:56:51;15.35;;;7.00;;
62679;SDS011;68213;40.528;44.712;2023-04-06T02:57:52;14.48;;;6.72;;
62679;SDS011;68213;40.528;44.712;2023-04-06T02:58:53;16.00;;;5.90;;
62679;SDS011;68213;40.528;44.712;2023-04-06T02:59:54;16.38;;;6.00;;
62679;SDS011;68213;40.528;44.712;2023-04-06T03:00:55;11.13;;;6.60;;
62679;SDS011;68213;40.528;44.712;2023-04-06T03:01:55;11.65;;;6.03;;
62679;SDS011;68213;40.528;44.712;2023-04-06T03:02:56;14.13;;;6.20;;
62679;SDS011;68213;40.528;44.712;2023-04-06T03:03:57;13.60;;;6.75;;
62679;SDS011;68213;40.528;44.712;2023-04-06T03:04:57;17.45;;;7.13;;
62679;SDS011;68213;40.528;44.712;2023-04-06T03:05:59;11.52;;;6.03;;
62679;SDS011;68213;40.528;44.712;2023-04-06T03:07:00;12.88;;;6.30;;
62679;SDS011;68213;40.528;44.712;2023-04-06T03:08:00;11.48;;;6.10;;
62679;SDS011;68213;40.528;44.712;2023-04-06T03:09:04;17.83;;;6.53;;
62679;SDS011;68213;40.528;44.712;2023-04-06T03:10:05;14.90;;;6.53;;
62679;SDS011;68213;40.528;44.712;2023-04-06T03:11:06;10.98;;;6.00;;
62679;SDS011;68213;40.528;44.712;2023-04-06T03:12:07;15.70;;;6.50;;
62679;SDS011;68213;40.528;44.712;2023-04-06T03:13:10;14.18;;;6.85;;
62679;SDS011;68213;40.528;44.712;2023-04-06T03:14:10;13.98;;;6.50;;
62679;SDS011;68213;40.528;44.712;2023-04-06T03:15:12;12.27;;;6.93;;
62679;SDS011;68213;40.528;44.712;2023-04-06T03:16:13;14.93;;;6.28;;
62679;SDS011;68213;40.528;44.712;2023-04-06T03:17:13;18.02;;;6.60;;
62679;SDS011;68213;40.528;44.712;2023-04-06T03:18:14;10.13;;;6.00;;
62679;SDS011;68213;40.528;44.712;2023-04-06T03:19:15;10.32;;;5.90;;
62679;SDS011;68213;40.528;44.712;2023-04-06T03:20:16;17.60;;;6.45;;
62679;SDS011;68213;40.528;44.712;2023-04-06T03:21:16;10.75;;;6.15;;
62679;SDS011;68213;40.528;44.712;2023-04-06T03:22:17;17.90;;;6.25;;
62679;SDS011;68213;40.528;44.712;2023-04-06T03:23:18;13.80;;;5.72;;
62679;SDS011;68213;40.528;44.712;2023-04-06T03:24:20;11.85;;;6.43;;
62679;SDS011;68213;40.528;44.712;2023-04-06T03:25:21;21.42;;;6.47;;
62679;SDS011;68213;40.528;44.712;2023-04-06T03:26:22;15.20;;;6.10;;
62679;SDS011;68213;40.528;44.712;2023-04-06T03:27:22;15.80;;;6.13;;
62679;SDS011;68213;40.528;44.712;2023-04-06T03:28:23;10.68;;;6.00;;
62679;SDS011;68213;40.528;44.712;2023-04-06T03:29:24;13.50;;;6.38;;
62679;SDS011;68213;40.528;44.712;2023-04-06T03:30:25;17.55;;;6.32;;
62679;SDS011;68213;40.528;44.712;2023-04-06T03:31:26;15.40;;;6.97;;
62679;SDS011;68213;40.528;44.712;2023-04-06T03:32:27;16.70;;;6.63;;
62679;SDS011;68213;40.528;44.712;2023-04-06T03:33:28;12.35;;;6.38;;
62679;SDS011;68213;40.528;44.712;2023-04-06T03:34:30;10.15;;;5.53;;
62679;SDS011;68213;40.528;44.712;2023-04-06T03:35:31;13.75;;;5.93;;
62679;SDS011;68213;40.528;44.712;2023-04-06T03:36:31;9.48;;;6.03;;
62679;SDS011;68213;40.528;44.712;2023-04-06T03:37:32;12.13;;;5.68;;
62679;SDS011;68213;40.528;44.712;2023-04-06T03:38:33;10.98;;;6.30;;
62679;SDS011;68213;40.528;44.712;2023-04-06T03:39:33;14.48;;;5.80;;
62679;SDS011;68213;40.528;44.712;2023-04-06T03:40:34;11.00;;;5.55;;
62679;SDS011;68213;40.528;44.712;2023-04-06T03:41:35;12.32;;;5.63;;
62679;SDS011;68213;40.528;44.712;2023-04-06T03:42:36;13.20;;;5.78;;
62679;SDS011;68213;40.528;44.712;2023-04-06T03:43:36;14.60;;;5.82;;
62679;SDS011;68213;40.528;44.712;2023-04-06T03:44:37;13.20;;;5.53;;
62679;SDS011;68213;40.528;44.712;2023-04-06T03:45:38;15.95;;;6.13;;
62679;SDS011;68213;40.528;44.712;2023-04-06T03:46:38;13.43;;;6.45;;
62679;SDS011;68213;40.528;44.712;2023-04-06T03:47:39;15.30;;;5.85;;
62679;SDS011;68213;40.528;44.712;2023-04-06T03:48:42;15.13;;;6.65;;
62679;SDS011;68213;40.528;44.712;2023-04-06T03:49:43;16.75;;;6.50;;
62679;SDS011;68213;40.528;44.712;2023-04-06T03:50:43;22.48;;;7.30;;
62679;SDS011;68213;40.528;44.712;2023-04-06T03:51:47;9.60;;;6.18;;
62679;SDS011;68213;40.528;44.712;2023-04-06T03:52:47;20.38;;;6.47;;
62679;SDS011;68213;40.528;44.712;2023-04-06T03:53:48;19.02;;;6.80;;
62679;SDS011;68213;40.528;44.712;2023-04-06T03:54:49;17.73;;;6.95;;
62679;SDS011;68213;40.528;44.712;2023-04-06T03:55:49;12.95;;;6.82;;
62679;SDS011;68213;40.528;44.712;2023-04-06T03:56:50;11.68;;;6.50;;
62679;SDS011;68213;40.528;44.712;2023-04-06T03:57:51;15.30;;;6.28;;
62679;SDS011;68213;40.528;44.712;2023-04-06T03:58:52;15.07;;;6.80;;
62679;SDS011;68213;40.528;44.712;2023-04-06T03:59:52;15.10;;;6.40;;
62679;SDS011;68213;40.528;44.712;2023-04-06T04:00:53;13.18;;;6.55;;
62679;SDS011;68213;40.528;44.712;2023-04-06T04:01:56;15.60;;;6.38;;
62679;SDS011;68213;40.528;44.712;2023-04-06T04:02:58;12.98;;;5.82;;
62679;SDS011;68213;40.528;44.712;2023-04-06T04:03:59;11.35;;;6.32;;
62679;SDS011;68213;40.528;44.712;2023-04-06T04:05:00;10.88;;;5.85;;
62679;SDS011;68213;40.528;44.712;2023-04-06T04:06:00;11.73;;;6.40;;
62679;SDS011;68213;40.528;44.712;2023-04-06T04:07:01;16.63;;;6.43;;
62679;SDS011;68213;40.528;44.712;2023-04-06T04:08:02;8.45;;;5.93;;
62679;SDS011;68213;40.528;44.712;2023-04-06T04:09:02;13.73;;;5.55;;
62679;SDS011;68213;40.528;44.712;2023-04-06T04:10:03;13.57;;;6.00;;
62679;SDS011;68213;40.528;44.712;2023-04-06T04:11:04;10.30;;;5.78;;
62679;SDS011;68213;40.528;44.712;2023-04-06T04:12:05;13.77;;;6.22;;
62679;SDS011;68213;40.528;44.712;2023-04-06T04:13:06;13.43;;;6.35;;
62679;SDS011;68213;40.528;44.712;2023-04-06T04:14:07;12.68;;;5.85;;
62679;SDS011;68213;40.528;44.712;2023-04-06T04:15:08;17.30;;;5.72;;
62679;SDS011;68213;40.528;44.712;2023-04-06T04:16:08;13.73;;;5.68;;
62679;SDS011;68213;40.528;44.712;2023-04-06T04:17:09;9.50;;;5.63;;
62679;SDS011;68213;40.528;44.712;2023-04-06T04:18:10;14.57;;;5.13;;
62679;SDS011;68213;40.528;44.712;2023-04-06T04:19:13;11.38;;;5.50;;
62679;SDS011;68213;40.528;44.712;2023-04-06T04:20:14;16.80;;;5.60;;
62679;SDS011;68213;40.528;44.712;2023-04-06T04:21:15;13.18;;;4.93;;
62679;SDS011;68213;40.528;44.712;2023-04-06T04:22:15;11.82;;;5.15;;
62679;SDS011;68213;40.528;44.712;2023-04-06T04:23:16;11.90;;;4.97;;
62679;SDS011;68213;40.528;44.712;2023-04-06T04:24:17;13.63;;;5.68;;
62679;SDS011;68213;40.528;44.712;2023-04-06T04:25:17;14.18;;;5.25;;
62679;SDS011;68213;40.528;44.712;2023-04-06T04:26:18;13.93;;;5.75;;
62679;SDS011;68213;40.528;44.712;2023-04-06T04:27:19;12.18;;;5.35;;
62679;SDS011;68213;40.528;44.712;2023-04-06T04:28:20;13.77;;;5.45;;
62679;SDS011;68213;40.528;44.712;2023-04-06T04:29:21;14.32;;;5.90;;
62679;SDS011;68213;40.528;44.712;2023-04-06T04:30:22;12.55;;;5.32;;
62679;SDS011;68213;40.528;44.712;2023-04-06T04:31:23;17.60;;;5.78;;
62679;SDS011;68213;40.528;44.712;2023-04-06T04:32:24;13.77;;;5.88;;
62679;SDS011;68213;40.528;44.712;2023-04-06T04:33:27;14.35;;;6.20;;
62679;SDS011;68213;40.528;44.712;2023-04-06T04:34:28;16.88;;;5.60;;
62679;SDS011;68213;40.528;44.712;2023-04-06T04:35:30;13.40;;;5.10;;
62679;SDS011;68213;40.528;44.712;2023-04-06T04:36:31;10.05;;;4.97;;
62679;SDS011;68213;40.528;44.712;2023-04-06T04:37:32;9.88;;;4.68;;
62679;SDS011;68213;40.528;44.712;2023-04-06T04:38:34;10.85;;;4.97;;
62679;SDS011;68213;40.528;44.712;2023-04-06T04:39:35;11.73;;;4.82;;
62679;SDS011;68213;40.528;44.712;2023-04-06T04:40:36;13.45;;;4.47;;
62679;SDS011;68213;40.528;44.712;2023-04-06T04:41:37;11.90;;;4.65;;
62679;SDS011;68213;40.528;44.712;2023-04-06T04:42:37;14.70;;;4.60;;
62679;SDS011;68213;40.528;44.712;2023-04-06T04:43:38;13.38;;;4.90;;
62679;SDS011;68213;40.528;44.712;2023-04-06T04:44:39;15.45;;;4.97;;
62679;SDS011;68213;40.528;44.712;2023-04-06T04:45:39;13.07;;;4.60;;
62679;SDS011;68213;40.528;44.712;2023-04-06T04:46:40;11.20;;;4.72;;
62679;SDS011;68213;40.528;44.712;2023-04-06T04:47:42;17.05;;;5.10;;
62679;SDS011;68213;40.528;44.712;2023-04-06T04:48:43;17.48;;;4.95;;
62679;SDS011;68213;40.528;44.712;2023-04-06T04:49:43;11.40;;;4.38;;
62679;SDS011;68213;40.528;44.712;2023-04-06T04:50:44;9.80;;;4.35;;
62679;SDS011;68213;40.528;44.712;2023-04-06T04:51:45;18.65;;;4.85;;
62679;SDS011;68213;40.528;44.712;2023-04-06T04:52:45;10.95;;;4.78;;
62679;SDS011;68213;40.528;44.712;2023-04-06T04:53:46;7.90;;;4.20;;
62679;SDS011;68213;40.528;44.712;2023-04-06T04:54:47;11.88;;;4.32;;
62679;SDS011;68213;40.528;44.712;2023-04-06T04:55:47;13.05;;;4.50;;
62679;SDS011;68213;40.528;44.712;2023-04-06T04:56:48;9.77;;;4.40;;
62679;SDS011;68213;40.528;44.712;2023-04-06T04:57:50;16.27;;;5.15;;
62679;SDS011;68213;40.528;44.712;2023-04-06T04:58:51;11.10;;;4.50;;
62679;SDS011;68213;40.528;44.712;2023-04-06T04:59:52;9.57;;;4.47;;
62679;SDS011;68213;40.528;44.712;2023-04-06T05:00:52;12.23;;;4.55;;
62679;SDS011;68213;40.528;44.712;2023-04-06T05:01:53;11.00;;;4.70;;
62679;SDS011;68213;40.528;44.712;2023-04-06T05:02:53;13.20;;;4.95;;
62679;SDS011;68213;40.528;44.712;2023-04-06T05:03:54;12.00;;;5.55;;
62679;SDS011;68213;40.528;44.712;2023-04-06T05:04:55;11.25;;;5.38;;
62679;SDS011;68213;40.528;44.712;2023-04-06T05:05:56;11.38;;;5.18;;
62679;SDS011;68213;40.528;44.712;2023-04-06T05:07:06;14.85;;;6.18;;
62679;SDS011;68213;40.528;44.712;2023-04-06T05:08:08;11.68;;;5.40;;
62679;SDS011;68213;40.528;44.712;2023-04-06T05:09:08;14.68;;;5.88;;
62679;SDS011;68213;40.528;44.712;2023-04-06T05:10:09;14.25;;;5.90;;
62679;SDS011;68213;40.528;44.712;2023-04-06T05:11:10;15.00;;;5.63;;
62679;SDS011;68213;40.528;44.712;2023-04-06T05:12:11;12.60;;;5.18;;
62679;SDS011;68213;40.528;44.712;2023-04-06T05:13:11;10.52;;;4.78;;
62679;SDS011;68213;40.528;44.712;2023-04-06T05:14:14;15.45;;;4.95;;
62679;SDS011;68213;40.528;44.712;2023-04-06T05:15:15;10.63;;;5.00;;
62679;SDS011;68213;40.528;44.712;2023-04-06T05:16:16;16.38;;;6.07;;
62679;SDS011;68213;40.528;44.712;2023-04-06T05:17:17;15.95;;;5.38;;
62679;SDS011;68213;40.528;44.712;2023-04-06T05:18:18;11.48;;;4.82;;
62679;SDS011;68213;40.528;44.712;2023-04-06T05:19:18;11.27;;;4.85;;
62679;SDS011;68213;40.528;44.712;2023-04-06T05:20:19;13.85;;;4.70;;
62679;SDS011;68213;40.528;44.712;2023-04-06T05:21:20;13.15;;;4.57;;
62679;SDS011;68213;40.528;44.712;2023-04-06T05:22:21;17.60;;;4.90;;
62679;SDS011;68213;40.528;44.712;2023-04-06T05:23:21;12.27;;;4.88;;
62679;SDS011;68213;40.528;44.712;2023-04-06T05:24:22;12.52;;;4.22;;
62679;SDS011;68213;40.528;44.712;2023-04-06T05:25:24;14.45;;;4.40;;
62679;SDS011;68213;40.528;44.712;2023-04-06T05:26:25;14.05;;;4.43;;
62679;SDS011;68213;40.528;44.712;2023-04-06T05:27:26;11.73;;;4.60;;
62679;SDS011;68213;40.528;44.712;2023-04-06T05:28:29;10.10;;;4.75;;
62679;SDS011;68213;40.528;44.712;2023-04-06T05:29:29;12.88;;;4.63;;
62679;SDS011;68213;40.528;44.712;2023-04-06T05:30:30;12.95;;;4.60;;
62679;SDS011;68213;40.528;44.712;2023-04-06T05:31:31;12.23;;;4.40;;
62679;SDS011;68213;40.528;44.712;2023-04-06T05:32:31;11.32;;;4.53;;
62679;SDS011;68213;40.528;44.712;2023-04-06T05:33:32;13.52;;;4.80;;
62679;SDS011;68213;40.528;44.712;2023-04-06T05:34:33;13.75;;;4.72;;
62679;SDS011;68213;40.528;44.712;2023-04-06T05:35:34;10.80;;;4.25;;
62679;SDS011;68213;40.528;44.712;2023-04-06T05:36:35;16.75;;;4.65;;
62679;SDS011;68213;40.528;44.712;2023-04-06T05:37:35;11.60;;;4.07;;
62679;SDS011;68213;40.528;44.712;2023-04-06T05:38:36;12.68;;;4.55;;
62679;SDS011;68213;40.528;44.712;2023-04-06T05:39:37;16.55;;;4.90;;
62679;SDS011;68213;40.528;44.712;2023-04-06T05:40:38;13.68;;;4.55;;
62679;SDS011;68213;40.528;44.712;2023-04-06T05:41:41;11.80;;;4.60;;
62679;SDS011;68213;40.528;44.712;2023-04-06T05:42:42;11.98;;;4.45;;
62679;SDS011;68213;40.528;44.712;2023-04-06T05:43:42;13.77;;;4.28;;
62679;SDS011;68213;40.528;44.712;2023-04-06T05:44:43;11.15;;;3.90;;
62679;SDS011;68213;40.528;44.712;2023-04-06T05:45:44;13.18;;;3.67;;
62679;SDS011;68213;40.528;44.712;2023-04-06T05:46:45;10.60;;;3.55;;
62679;SDS011;68213;40.528;44.712;2023-04-06T05:47:46;8.15;;;3.90;;
62679;SDS011;68213;40.528;44.712;2023-04-06T05:48:47;8.98;;;4.10;;
62679;SDS011;68213;40.528;44.712;2023-04-06T05:49:47;13.95;;;4.43;;
62679;SDS011;68213;40.528;44.712;2023-04-06T05:50:48;10.88;;;3.80;;
62679;SDS011;68213;40.528;44.712;2023-04-06T05:51:53;13.73;;;3.95;;
62679;SDS011;68213;40.528;44.712;2023-04-06T05:52:55;12.65;;;3.60;;
62679;SDS011;68213;40.528;44.712;2023-04-06T05:53:55;14.68;;;4.13;;
62679;SDS011;68213;40.528;44.712;2023-04-06T05:54:56;10.68;;;3.80;;
62679;SDS011;68213;40.528;44.712;2023-04-06T05:55:57;15.20;;;3.75;;
62679;SDS011;68213;40.528;44.712;2023-04-06T05:57:01;13.98;;;3.78;;
62679;SDS011;68213;40.528;44.712;2023-04-06T05:58:02;13.07;;;5.60;;